sensor_id;sensor_type;location;lat;lon;timestamp;pressure;altitude;pressure_sealevel;temperature;humidity
12913;BME280;6524;51.368;11.984;2022-07-12T04:03:22;101068.78;;;15.45;99.50
12913;BME280;6524;51.368;11.984;2022-07-12T04:08:22;101086.13;;;15.49;99.88
12913;BME280;6524;51.368;11.984;2022-07-12T04:13:23;101083.00;;;15.62;99.58
12913;BME280;6524;51.368;11.984;2022-07-12T04:18:23;101086.56;;;15.61;100.00
12913;BME280;6524;51.368;11.984;2022-07-12T04:23:24;101087.31;;;15.63;100.00
12913;BME280;6524;51.368;11.984;2022-07-12T04:28:24;101090.31;;;15.76;100.00
12913;BME280;6524;51.368;11.984;2022-07-12T04:33:25;101095.13;;;15.86;100.00
12913;BME280;6524;51.368;11.984;2022-07-12T04:38:25;101107.44;;;16.25;100.00
12913;BME280;6524;51.368;11.984;2022-07-12T04:43:25;101106.50;;;16.47;99.44
12913;BME280;6524;51.368;11.984;2022-07-12T04:48:25;101100.53;;;16.62;98.91
12913;BME280;6524;51.368;11.984;2022-07-12T04:53:26;101102.88;;;16.68;98.71
12913;BME280;6524;51.368;11.984;2022-07-12T04:58:26;101102.22;;;17.01;97.93
12913;BME280;6524;51.368;11.984;2022-07-12T05:03:26;101104.19;;;17.33;97.20
12913;BME280;6524;51.368;11.984;2022-07-12T05:08:27;101108.75;;;17.47;96.90
12913;BME280;6524;51.368;11.984;2022-07-12T05:13:27;101107.44;;;17.73;95.48
12913;BME280;6524;51.368;11.984;2022-07-12T05:18:28;101121.53;;;17.91;95.41
12913;BME280;6524;51.368;11.984;2022-07-12T05:23:29;101116.94;;;18.12;95.10
12913;BME280;6524;51.368;11.984;2022-07-12T05:28:30;101133.91;;;18.57;92.96
12913;BME280;6524;51.368;11.984;2022-07-12T05:33:30;101138.00;;;18.96;90.78
12913;BME280;6524;51.368;11.984;2022-07-12T05:38:30;101146.81;;;19.27;88.05
12913;BME280;6524;51.368;11.984;2022-07-12T05:43:31;101152.25;;;19.39;87.23
12913;BME280;6524;51.368;11.984;2022-07-12T05:48:31;101157.56;;;19.71;86.25
12913;BME280;6524;51.368;11.984;2022-07-12T05:53:31;101156.97;;;19.96;85.54
12913;BME280;6524;51.368;11.984;2022-07-12T05:58:32;101174.66;;;20.10;84.47
12913;BME280;6524;51.368;11.984;2022-07-12T06:03:32;101169.09;;;20.29;82.54
12913;BME280;6524;51.368;11.984;2022-07-12T06:08:32;101175.97;;;20.90;78.91
12913;BME280;6524;51.368;11.984;2022-07-12T06:13:33;101168.63;;;21.49;75.49
12913;BME280;6524;51.368;11.984;2022-07-12T06:18:37;101182.34;;;21.96;73.63
12913;BME280;6524;51.368;11.984;2022-07-12T06:23:38;101177.13;;;22.34;71.60
12913;BME280;6524;51.368;11.984;2022-07-12T06:28:38;101181.75;;;22.18;71.71
12913;BME280;6524;51.368;11.984;2022-07-12T06:33:38;101178.75;;;22.10;72.12
12913;BME280;6524;51.368;11.984;2022-07-12T06:38:39;101176.63;;;22.15;72.14
12913;BME280;6524;51.368;11.984;2022-07-12T06:43:39;101178.16;;;22.45;70.37
12913;BME280;6524;51.368;11.984;2022-07-12T06:48:39;101173.91;;;22.55;70.57
12913;BME280;6524;51.368;11.984;2022-07-12T06:53:40;101183.25;;;22.73;68.98
12913;BME280;6524;51.368;11.984;2022-07-12T06:58:40;101183.84;;;22.90;68.22
12913;BME280;6524;51.368;11.984;2022-07-12T07:03:40;101176.94;;;23.00;67.89
12913;BME280;6524;51.368;11.984;2022-07-12T07:08:41;101196.84;;;23.55;64.89
12913;BME280;6524;51.368;11.984;2022-07-12T07:13:41;101189.38;;;23.60;65.69
12913;BME280;6524;51.368;11.984;2022-07-12T07:18:41;101184.91;;;23.61;65.46
12913;BME280;6524;51.368;11.984;2022-07-12T07:23:41;101189.03;;;23.89;64.05
12913;BME280;6524;51.368;11.984;2022-07-12T07:28:42;101190.78;;;24.12;61.90
12913;BME280;6524;51.368;11.984;2022-07-12T07:34:01;101192.88;;;24.20;61.59
12913;BME280;6524;51.368;11.984;2022-07-12T07:39:02;101186.94;;;24.16;61.56
12913;BME280;6524;51.368;11.984;2022-07-12T07:44:03;101190.59;;;24.38;60.62
12913;BME280;6524;51.368;11.984;2022-07-12T07:49:03;101190.59;;;24.38;59.42
12913;BME280;6524;51.368;11.984;2022-07-12T07:54:04;101184.59;;;24.58;57.85
12913;BME280;6524;51.368;11.984;2022-07-12T07:59:04;101183.25;;;24.75;56.99
12913;BME280;6524;51.368;11.984;2022-07-12T08:04:06;101179.63;;;24.76;55.65
12913;BME280;6524;51.368;11.984;2022-07-12T08:09:06;101175.22;;;25.09;55.29
12913;BME280;6524;51.368;11.984;2022-07-12T08:14:13;101166.88;;;25.13;55.24
12913;BME280;6524;51.368;11.984;2022-07-12T08:19:26;101161.97;;;25.30;54.34
12913;BME280;6524;51.368;11.984;2022-07-12T08:24:27;101165.28;;;25.54;54.68
12913;BME280;6524;51.368;11.984;2022-07-12T08:29:27;101173.06;;;25.78;52.46
12913;BME280;6524;51.368;11.984;2022-07-12T08:34:28;101170.66;;;26.07;51.99
12913;BME280;6524;51.368;11.984;2022-07-12T08:39:28;101165.84;;;26.32;49.78
12913;BME280;6524;51.368;11.984;2022-07-12T08:44:29;101170.25;;;26.64;47.66
12913;BME280;6524;51.368;11.984;2022-07-12T08:49:31;101175.94;;;26.80;49.54
12913;BME280;6524;51.368;11.984;2022-07-12T08:54:40;101167.16;;;27.09;47.39
12913;BME280;6524;51.368;11.984;2022-07-12T08:59:47;101163.63;;;27.08;46.79
12913;BME280;6524;51.368;11.984;2022-07-12T09:04:47;101175.84;;;27.80;46.38
12913;BME280;6524;51.368;11.984;2022-07-12T09:09:48;101171.03;;;28.03;44.69
12913;BME280;6524;51.368;11.984;2022-07-12T09:14:52;101158.88;;;28.09;44.55
12913;BME280;6524;51.368;11.984;2022-07-12T09:19:56;101159.47;;;27.93;45.70
12913;BME280;6524;51.368;11.984;2022-07-12T09:25:08;101156.66;;;27.65;43.73
12913;BME280;6524;51.368;11.984;2022-07-12T09:30:09;101149.69;;;27.05;46.56
12913;BME280;6524;51.368;11.984;2022-07-12T09:35:10;101145.78;;;27.57;46.39
12913;BME280;6524;51.368;11.984;2022-07-12T09:40:29;101149.31;;;27.58;43.95
12913;BME280;6524;51.368;11.984;2022-07-12T09:45:30;101154.53;;;26.80;46.58
12913;BME280;6524;51.368;11.984;2022-07-12T09:50:31;101139.66;;;27.07;45.72
12913;BME280;6524;51.368;11.984;2022-07-12T09:55:33;101157.19;;;27.69;45.14
12913;BME280;6524;51.368;11.984;2022-07-12T10:00:35;101161.72;;;27.88;42.33
12913;BME280;6524;51.368;11.984;2022-07-12T10:05:38;101155.59;;;28.25;40.91
12913;BME280;6524;51.368;11.984;2022-07-12T10:10:40;101157.34;;;28.53;42.39
12913;BME280;6524;51.368;11.984;2022-07-12T10:15:42;101162.97;;;28.88;42.00
12913;BME280;6524;51.368;11.984;2022-07-12T10:20:48;101169.44;;;28.10;41.00
12913;BME280;6524;51.368;11.984;2022-07-12T10:25:48;101163.19;;;28.29;41.20
12913;BME280;6524;51.368;11.984;2022-07-12T10:30:50;101164.16;;;28.75;40.20
12913;BME280;6524;51.368;11.984;2022-07-12T10:36:01;101155.53;;;29.09;39.22
12913;BME280;6524;51.368;11.984;2022-07-12T10:41:17;101153.00;;;28.98;38.45
12913;BME280;6524;51.368;11.984;2022-07-12T10:46:23;101160.41;;;28.96;39.74
12913;BME280;6524;51.368;11.984;2022-07-12T10:51:25;101158.09;;;29.64;38.62
12913;BME280;6524;51.368;11.984;2022-07-12T10:56:25;101152.72;;;29.64;38.37
12913;BME280;6524;51.368;11.984;2022-07-12T11:01:31;101150.56;;;29.50;39.20
12913;BME280;6524;51.368;11.984;2022-07-12T11:06:35;101159.19;;;28.53;39.96
12913;BME280;6524;51.368;11.984;2022-07-12T11:16:45;101160.28;;;28.13;39.40
12913;BME280;6524;51.368;11.984;2022-07-12T11:21:46;101147.66;;;28.23;39.70
12913;BME280;6524;51.368;11.984;2022-07-12T11:26:50;101133.63;;;28.39;39.55
12913;BME280;6524;51.368;11.984;2022-07-12T11:32:00;101141.91;;;28.18;39.13
12913;BME280;6524;51.368;11.984;2022-07-12T11:37:01;101130.56;;;28.34;39.20
12913;BME280;6524;51.368;11.984;2022-07-12T11:42:03;101122.28;;;28.55;38.62
12913;BME280;6524;51.368;11.984;2022-07-12T11:47:04;101112.78;;;28.43;38.85
12913;BME280;6524;51.368;11.984;2022-07-12T11:52:05;101111.16;;;28.12;38.03
12913;BME280;6524;51.368;11.984;2022-07-12T11:57:10;101095.44;;;28.82;37.26
12913;BME280;6524;51.368;11.984;2022-07-12T12:02:13;101085.31;;;29.04;34.77
12913;BME280;6524;51.368;11.984;2022-07-12T12:07:14;101087.78;;;29.15;35.98
12913;BME280;6524;51.368;11.984;2022-07-12T12:12:18;101092.41;;;29.67;34.88
12913;BME280;6524;51.368;11.984;2022-07-12T12:17:19;101094.06;;;30.46;34.37
12913;BME280;6524;51.368;11.984;2022-07-12T12:22:32;101086.31;;;30.85;33.53
12913;BME280;6524;51.368;11.984;2022-07-12T12:27:40;101083.66;;;30.51;33.26
12913;BME280;6524;51.368;11.984;2022-07-12T12:32:54;101075.97;;;30.64;34.43
12913;BME280;6524;51.368;11.984;2022-07-12T12:37:57;101075.31;;;30.71;34.17
12913;BME280;6524;51.368;11.984;2022-07-12T12:43:12;101075.44;;;29.66;34.78
12913;BME280;6524;51.368;11.984;2022-07-12T12:48:18;101069.19;;;29.84;35.51
12913;BME280;6524;51.368;11.984;2022-07-12T12:53:23;101070.19;;;30.94;33.32
12913;BME280;6524;51.368;11.984;2022-07-12T12:58:25;101071.72;;;31.21;32.15
12913;BME280;6524;51.368;11.984;2022-07-12T13:03:26;101066.53;;;31.44;32.57
12913;BME280;6524;51.368;11.984;2022-07-12T13:08:27;101072.41;;;31.64;32.54
12913;BME280;6524;51.368;11.984;2022-07-12T13:13:27;101066.03;;;31.40;30.71
12913;BME280;6524;51.368;11.984;2022-07-12T13:18:27;101067.66;;;31.74;31.37
12913;BME280;6524;51.368;11.984;2022-07-12T13:23:28;101071.88;;;31.76;31.38
12913;BME280;6524;51.368;11.984;2022-07-12T13:28:28;101072.53;;;31.95;31.13
12913;BME280;6524;51.368;11.984;2022-07-12T13:33:30;101069.66;;;32.05;31.62
12913;BME280;6524;51.368;11.984;2022-07-12T13:38:31;101062.28;;;32.30;31.12
12913;BME280;6524;51.368;11.984;2022-07-12T13:43:32;101051.47;;;31.90;30.48
12913;BME280;6524;51.368;11.984;2022-07-12T13:48:33;101050.63;;;31.90;30.77
12913;BME280;6524;51.368;11.984;2022-07-12T13:53:39;101056.38;;;31.70;30.37
12913;BME280;6524;51.368;11.984;2022-07-12T13:58:39;101046.28;;;31.72;30.88
12913;BME280;6524;51.368;11.984;2022-07-12T14:03:40;101049.50;;;31.43;31.26
12913;BME280;6524;51.368;11.984;2022-07-12T14:08:40;101055.25;;;31.40;31.00
12913;BME280;6524;51.368;11.984;2022-07-12T14:13:41;101040.41;;;31.44;30.72
12913;BME280;6524;51.368;11.984;2022-07-12T14:18:42;101028.28;;;31.56;30.50
12913;BME280;6524;51.368;11.984;2022-07-12T14:23:42;101037.34;;;31.72;30.30
12913;BME280;6524;51.368;11.984;2022-07-12T14:28:43;101027.94;;;31.60;31.13
12913;BME280;6524;51.368;11.984;2022-07-12T14:33:44;101025.53;;;31.65;30.72
12913;BME280;6524;51.368;11.984;2022-07-12T14:38:44;101021.19;;;31.23;29.50
12913;BME280;6524;51.368;11.984;2022-07-12T14:43:45;101018.31;;;31.24;29.98
12913;BME280;6524;51.368;11.984;2022-07-12T14:48:48;101024.94;;;31.38;30.08
12913;BME280;6524;51.368;11.984;2022-07-12T14:53:50;101020.03;;;31.25;29.08
12913;BME280;6524;51.368;11.984;2022-07-12T14:58:53;101012.78;;;31.01;29.75
12913;BME280;6524;51.368;11.984;2022-07-12T15:03:53;101011.94;;;31.01;29.49
12913;BME280;6524;51.368;11.984;2022-07-12T15:08:54;101015.13;;;31.21;30.53
12913;BME280;6524;51.368;11.984;2022-07-12T15:13:54;101014.31;;;31.12;29.22
12913;BME280;6524;51.368;11.984;2022-07-12T15:18:55;101006.03;;;31.05;30.70
12913;BME280;6524;51.368;11.984;2022-07-12T15:23:58;101002.81;;;30.77;30.35
12913;BME280;6524;51.368;11.984;2022-07-12T15:29:00;101008.03;;;30.79;29.98
12913;BME280;6524;51.368;11.984;2022-07-12T15:34:02;101004.94;;;30.57;30.30
12913;BME280;6524;51.368;11.984;2022-07-12T15:39:03;101001.91;;;30.52;30.35
12913;BME280;6524;51.368;11.984;2022-07-12T15:44:03;100989.22;;;30.28;31.09
12913;BME280;6524;51.368;11.984;2022-07-12T15:49:04;100994.47;;;30.38;31.43
12913;BME280;6524;51.368;11.984;2022-07-12T15:54:06;100987.31;;;30.12;31.51
12913;BME280;6524;51.368;11.984;2022-07-12T15:59:07;100986.63;;;30.10;31.95
12913;BME280;6524;51.368;11.984;2022-07-12T16:04:08;100977.53;;;30.11;31.81
12913;BME280;6524;51.368;11.984;2022-07-12T16:09:09;100976.19;;;30.07;32.37
12913;BME280;6524;51.368;11.984;2022-07-12T16:14:09;100982.19;;;30.01;32.68
12913;BME280;6524;51.368;11.984;2022-07-12T16:19:10;100975.78;;;29.94;31.65
12913;BME280;6524;51.368;11.984;2022-07-12T16:24:11;100979.19;;;29.96;32.39
12913;BME280;6524;51.368;11.984;2022-07-12T16:29:12;100970.78;;;30.07;32.42
12913;BME280;6524;51.368;11.984;2022-07-12T16:34:12;100966.84;;;29.85;32.40
12913;BME280;6524;51.368;11.984;2022-07-12T16:39:13;100968.97;;;29.73;33.02
12913;BME280;6524;51.368;11.984;2022-07-12T16:44:14;100964.97;;;29.78;32.71
12913;BME280;6524;51.368;11.984;2022-07-12T16:49:14;100965.28;;;29.74;35.84
12913;BME280;6524;51.368;11.984;2022-07-12T16:54:15;100972.78;;;29.63;33.31
12913;BME280;6524;51.368;11.984;2022-07-12T16:59:15;100966.56;;;29.62;33.18
12913;BME280;6524;51.368;11.984;2022-07-12T17:04:16;100968.34;;;29.54;33.34
12913;BME280;6524;51.368;11.984;2022-07-12T17:09:16;100969.28;;;29.44;32.95
12913;BME280;6524;51.368;11.984;2022-07-12T17:14:17;100972.00;;;29.26;33.61
12913;BME280;6524;51.368;11.984;2022-07-12T17:19:18;100957.44;;;29.11;34.35
12913;BME280;6524;51.368;11.984;2022-07-12T17:24:22;100952.88;;;29.03;34.79
12913;BME280;6524;51.368;11.984;2022-07-12T17:29:22;100962.09;;;29.01;35.07
12913;BME280;6524;51.368;11.984;2022-07-12T17:34:23;100963.69;;;28.94;34.44
12913;BME280;6524;51.368;11.984;2022-07-12T17:39:24;100958.72;;;28.81;34.99
12913;BME280;6524;51.368;11.984;2022-07-12T17:44:27;100950.25;;;28.76;34.68
12913;BME280;6524;51.368;11.984;2022-07-12T17:49:29;100949.94;;;28.61;34.38
12913;BME280;6524;51.368;11.984;2022-07-12T17:54:36;100950.50;;;28.47;35.09
12913;BME280;6524;51.368;11.984;2022-07-12T17:59:46;100946.84;;;28.38;35.53
12913;BME280;6524;51.368;11.984;2022-07-12T18:04:47;100955.25;;;28.25;35.81
